Pritchett, Texas
Current Conditions -  °F | °C
As of 11:35 AM on Wednesday 26 Nov 2014 (Local Time) from KJDD Reporting Station
Clear Clear  
Wind Chill: 61°   Ceiling: Unl
Heat Index: 61°   Visibility: 10mi
Dew Point: 25°   Wind: 10mph
Humidity: 25%   Direction: 270°W
Pressure: 30.16"   Gusts: 16mph
Location:  32.6267°N, 95.0888°W
Report Text: KJDD 261735Z AUTO 27009G14KT 10SM CLR 16/M04 A3016 RMK AO2
Loading
Personal Weather Stations






























Interactive Weather Map New forecast layout! Learn more

10-Day Weather Forecast

Advertisements
Track Severe Weather on mobile